CheckWX is a tool to help pilots better visualize weather data.  It is not intended as a substitute for an official pre-flight weather briefing.

01:05:36 UTC

KLEE METAR
Leesburg International Airport
Leesburg, Florida, USA
Current

1 hour ago

KLEE 192353Z AUTO 00000KT 10SM CLR 27/23 A3004 RMK AO2 SLP172 60000 T02720228 10344 20272 51004
Observed
Aug-19 @ 23:53 UTC
Visibility
10 SM
Flight Rules
VFR
Cloud Levels
  • Clear skies
Temperature
27°C / 81°F
Dewpoint
23°C / 73°F
Heat Index
30°C / 86°F
Humidity
79%
Altimeter
30.04" Hg
Pressure
1017.32 hPa
Previous

2 hours ago

KLEE 192253Z AUTO 17006KT 10SM CLR 28/23 A3004 RMK AO2 RAE10 SLP170 P0000 T02780228
Observed
Aug-19 @ 22:53 UTC
Wind
  • 170° at 6 KTS
Visibility
10 SM
Flight Rules
VFR
Cloud Levels
  • Clear skies
Temperature
28°C / 82°F
Dewpoint
23°C / 73°F
Heat Index
31°C / 87°F
Humidity
74%
Altimeter
30.04" Hg
Pressure
1017.32 hPa
Current Rain
0.01"
Previous

3 hours ago

KLEE 192153Z 08013G22KT 10SM -RA SCT044 SCT055 BKN070 28/22 A3006 RMK AO2 PK WND 12030/2117 WSHFT 2115 LTG DSNT S RAB44 SLP177 P0000 T02780222
Observed
Aug-19 @ 21:53 UTC
Wind
  • 080° at 13 KTS
  • Gusting to 22 KTS
Visibility
10 SM
Flight Rules
VFR
Conditions
Light Rain
Cloud Levels
  • Scattered at 4,400' AGL
  • Scattered at 5,500' AGL
  • Broken at 7,000' AGL
Temperature
28°C / 82°F
Dewpoint
22°C / 72°F
Heat Index
30°C / 86°F
Humidity
70%
Altimeter
30.06" Hg
Pressure
1017.92 hPa
Current Rain
0.01"